Fort Reliance, Canada
Current Conditions -  °F | °C
As of 3:00 PM on Saturday 25 Oct 2014 (Local Time) from CYZF Reporting Station
Overcast Overcast  
Wind Chill: 17°   Ceiling: 800
Heat Index: 25°   Visibility: 15mi
Dew Point: 21°   Wind: 7mph
Humidity: 86%   Direction: 340°NNW
Pressure: 29.92"   Gusts: NA
Location:  62.71°N, 109.15°W
Report Text: CYZF 252100Z 34006KT 15SM BKN008 OVC012 M04/M06 A2992 RMK SC6SC2 SLP148
Loading
Personal Weather Stations






























Interactive Weather Map
Tropical Storm Tracking
New forecast layout! Learn more

10-Day Weather Forecast

Advertisements
Track Severe Weather on mobile